Time,TemperatureF,DewpointF,PressureIn,WindDirection,WindDirectionDegrees,WindSpeedMPH,WindSpeedGustMPH,Humidity,HourlyPrecipIn,Conditions,Clouds,dailyrainin,SoftwareType,DateUTC
2013-01-07 00:00:00,41.3,19.9,29.97,NNW,331,6.0,10.0,42,0.00,CLR,,0.00,WeatherDisplay:10.37,2013-01-07 08:00:00,
2013-01-07 00:10:00,41.3,19.9,29.97,NNW,329,1.0,4.0,42,0.00,CLR,,0.00,WeatherDisplay:10.37,2013-01-07 08:10:00,
2013-01-07 00:20:00,40.8,19.5,29.97,NNW,329,1.0,4.0,42,0.00,CLR,,0.00,WeatherDisplay:10.37,2013-01-07 08:20:00,
2013-01-07 00:30:00,40.3,19.0,29.97,NNW,329,1.0,4.0,42,0.00,CLR,,0.00,WeatherDisplay:10.37,2013-01-07 08:30:00,
2013-01-07 00:40:00,40.2,19.5,29.97,NNW,329,0.0,0.0,43,0.00,CLR,,0.00,WeatherDisplay:10.37,2013-01-07 08:40:00,
2013-01-07 00:50:00,39.8,19.1,29.96,NNW,329,0.0,3.0,43,0.00,CLR,,0.00,WeatherDisplay:10.37,2013-01-07 08:50:00,
2013-01-07 01:00:00,39.6,18.4,29.97,NNW,330,2.0,5.0,42,0.00,CLR,,0.00,WeatherDisplay:10.37,2013-01-07 09:00:00,
2013-01-07 01:10:00,39.7,18.5,29.97,North,354,5.0,9.0,42,0.00,CLR,,0.00,WeatherDisplay:10.37,2013-01-07 09:10:00,
2013-01-07 01:20:00,39.9,18.1,29.97,North,11,2.0,5.0,41,0.00,CLR,,0.00,WeatherDisplay:10.37,2013-01-07 09:20:00,
2013-01-07 01:30:00,39.5,17.7,29.97,North,5,2.0,5.0,41,0.00,CLR,,0.00,WeatherDisplay:10.37,2013-01-07 09:30:00,
2013-01-07 01:40:00,39.5,17.7,29.97,North,5,0.0,2.0,41,0.00,CLR,,0.00,WeatherDisplay:10.37,2013-01-07 09:40:00,
2013-01-07 01:50:00,40.0,17.0,29.97,NNW,348,3.0,7.0,39,0.00,CLR,,0.00,WeatherDisplay:10.37,2013-01-07 09:50:00,
2013-01-07 02:00:00,42.3,16.5,29.97,NNW,338,10.0,17.0,35,0.00,CLR,,0.00,WeatherDisplay:10.37,2013-01-07 10:00:00,
2013-01-07 02:05:00,43.0,16.5,29.96,NNW,337,12.0,17.0,34,0.00,CLR,,0.00,WeatherDisplay:10.37,2013-01-07 10:05:00,
2013-01-07 02:10:00,43.2,16.7,29.96,NNW,339,7.0,18.0,34,0.00,CLR,,0.00,WeatherDisplay:10.37,2013-01-07 10:10:00,
2013-01-07 02:20:00,43.2,16.7,29.97,NNW,329,10.0,17.0,34,0.00,CLR,,0.00,WeatherDisplay:10.37,2013-01-07 10:20:00,
2013-01-07 02:30:00,43.3,16.1,29.96,NNW,329,10.0,20.0,33,0.00,CLR,,0.00,WeatherDisplay:10.37,2013-01-07 10:30:00,
2013-01-07 02:40:00,43.3,15.4,29.96,NNW,337,15.0,22.0,32,0.00,CLR,,0.00,WeatherDisplay:10.37,2013-01-07 10:40:00,
2013-01-07 02:50:00,43.3,15.4,29.97,NNW,327,13.0,22.0,32,0.00,CLR,,0.00,WeatherDisplay:10.37,2013-01-07 10:50:00,
2013-01-07 03:00:00,42.9,15.7,29.97,NNW,343,6.0,16.0,33,0.00,CLR,,0.00,WeatherDisplay:10.37,2013-01-07 11:00:00,
2013-01-07 03:05:00,42.8,14.9,29.96,NNW,345,8.0,16.0,32,0.00,CLR,,0.00,WeatherDisplay:10.37,2013-01-07 11:05:00,
2013-01-07 03:10:00,43.2,14.5,29.96,NNW,329,12.0,16.0,31,0.00,CLR,,0.00,WeatherDisplay:10.37,2013-01-07 11:10:00,
2013-01-07 03:20:00,43.2,15.3,29.96,NNW,337,13.0,20.0,32,0.00,CLR,,0.00,WeatherDisplay:10.37,2013-01-07 11:20:00,
2013-01-07 03:30:00,43.2,15.3,29.97,NNW,335,10.0,24.0,32,0.00,CLR,,0.00,WeatherDisplay:10.37,2013-01-07 11:30:00,
2013-01-07 03:40:00,42.8,15.6,29.97,NNW,332,10.0,23.0,33,0.00,CLR,,0.00,WeatherDisplay:10.37,2013-01-07 11:40:00,
2013-01-07 03:50:00,42.5,15.4,29.97,NNW,331,8.0,17.0,33,0.00,CLR,,0.00,WeatherDisplay:10.37,2013-01-07 11:50:00,
2013-01-07 04:00:00,42.7,15.5,29.97,North,355,7.0,15.0,33,0.00,CLR,,0.00,WeatherDisplay:10.37,2013-01-07 12:00:00,
2013-01-07 04:05:00,42.3,15.9,29.97,North,1,6.0,12.0,34,0.00,CLR,,0.00,WeatherDisplay:10.37,2013-01-07 12:05:00,
2013-01-07 04:10:00,41.8,16.1,29.97,North,6,5.0,10.0,35,0.00,CLR,,0.00,WeatherDisplay:10.37,2013-01-07 12:10:00,
2013-01-07 04:20:00,41.6,15.9,29.97,NNW,346,3.0,15.0,35,0.00,CLR,,0.00,WeatherDisplay:10.37,2013-01-07 12:20:00,
2013-01-07 04:30:00,41.3,15.0,29.97,North,4,6.0,12.0,34,0.00,CLR,,0.00,WeatherDisplay:10.37,2013-01-07 12:30:00,
2013-01-07 04:40:00,40.8,15.2,29.97,North,0,2.0,7.0,35,0.00,CLR,,0.00,WeatherDisplay:10.37,2013-01-07 12:40:00,
2013-01-07 04:50:00,40.3,14.8,29.97,NNW,346,6.0,12.0,35,0.00,CLR,,0.00,WeatherDisplay:10.37,2013-01-07 12:50:00,
2013-01-07 05:00:00,40.7,15.1,29.97,North,349,6.0,14.0,35,0.00,CLR,,0.00,WeatherDisplay:10.37,2013-01-07 13:00:00,
2013-01-07 05:05:00,41.1,14.8,29.97,NNW,341,6.0,10.0,34,0.00,CLR,,0.00,WeatherDisplay:10.37,2013-01-07 13:05:00,
2013-01-07 05:10:00,40.9,14.6,29.97,NNW,339,5.0,10.0,34,0.00,CLR,,0.00,WeatherDisplay:10.37,2013-01-07 13:10:00,
2013-01-07 05:20:00,41.2,14.2,29.98,NNW,347,3.0,9.0,33,0.00,CLR,,0.00,WeatherDisplay:10.37,2013-01-07 13:20:00,
2013-01-07 05:30:00,40.5,14.3,29.99,NNW,345,3.0,8.0,34,0.00,CLR,,0.00,WeatherDisplay:10.37,2013-01-07 13:30:00,
2013-01-07 05:40:00,41.5,13.1,29.99,NNW,337,3.0,12.0,31,0.00,CLR,,0.00,WeatherDisplay:10.37,2013-01-07 13:40:00,
2013-01-07 05:50:00,41.8,13.3,29.99,NNW,342,3.0,12.0,31,0.00,CLR,,0.00,WeatherDisplay:10.37,2013-01-07 13:50:00,
2013-01-07 06:00:00,42.5,13.2,30.00,NNW,340,5.0,12.0,30,0.00,CLR,,0.00,WeatherDisplay:10.37,2013-01-07 14:00:00,
2013-01-07 06:05:00,42.5,12.5,30.00,NNW,338,5.0,12.0,29,0.00,CLR,,0.00,WeatherDisplay:10.37,2013-01-07 14:05:00,
2013-01-07 06:10:00,42.8,12.7,30.00,NNW,343,3.0,12.0,29,0.00,CLR,,0.00,WeatherDisplay:10.37,2013-01-07 14:10:00,
2013-01-07 06:20:00,42.6,12.5,30.00,North,349,5.0,12.0,29,0.00,CLR,,0.00,WeatherDisplay:10.37,2013-01-07 14:20:00,
2013-01-07 06:30:00,42.9,11.9,30.00,NNW,333,5.0,12.0,28,0.00,CLR,,0.00,WeatherDisplay:10.37,2013-01-07 14:30:00,
2013-01-07 06:40:00,43.5,12.5,30.00,NNW,335,8.0,15.0,28,0.00,CLR,,0.00,WeatherDisplay:10.37,2013-01-07 14:40:00,
2013-01-07 06:50:00,43.9,12.8,30.00,NNW,338,7.0,14.0,28,0.00,CLR,,0.00,WeatherDisplay:10.37,2013-01-07 14:50:00,
2013-01-07 07:00:00,43.5,12.5,30.01,NNW,348,2.0,7.0,28,0.00,CLR,,0.00,WeatherDisplay:10.37,2013-01-07 15:00:00,
2013-01-07 07:05:00,43.0,12.0,30.01,North,4,5.0,10.0,28,0.00,CLR,,0.00,WeatherDisplay:10.37,2013-01-07 15:05:00,
2013-01-07 07:10:00,42.8,11.9,30.02,NNE,14,5.0,10.0,28,0.00,CLR,,0.00,WeatherDisplay:10.37,2013-01-07 15:10:00,
2013-01-07 07:20:00,44.1,12.2,30.02,North,352,7.0,16.0,27,0.00,CLR,,0.00,WeatherDisplay:10.37,2013-01-07 15:20:00,
2013-01-07 07:30:00,44.9,12.0,30.03,North,354,5.0,17.0,26,0.00,CLR,,0.00,WeatherDisplay:10.37,2013-01-07 15:30:00,
2013-01-07 07:40:00,45.2,12.3,30.03,North,356,9.0,16.0,26,0.00,CLR,,0.00,WeatherDisplay:10.37,2013-01-07 15:40:00,
2013-01-07 07:50:00,45.2,13.1,30.03,NNW,345,7.0,20.0,27,0.00,CLR,,0.00,WeatherDisplay:10.37,2013-01-07 15:50:00,
2013-01-07 08:00:00,45.7,12.7,30.03,NNW,342,9.0,20.0,26,0.00,CLR,,0.00,WeatherDisplay:10.37,2013-01-07 16:00:00,
2013-01-07 08:05:00,46.1,12.1,30.03,NNW,344,12.0,20.0,25,0.00,CLR,,0.00,WeatherDisplay:10.37,2013-01-07 16:05:00,
2013-01-07 08:10:00,46.4,12.4,30.03,NNW,337,13.0,20.0,25,0.00,CLR,,0.00,WeatherDisplay:10.37,2013-01-07 16:10:00,
2013-01-07 08:20:00,46.8,12.8,30.03,NNW,344,9.0,20.0,25,0.00,CLR,,0.00,WeatherDisplay:10.37,2013-01-07 16:20:00,
2013-01-07 08:30:00,47.8,12.7,30.03,NNW,348,7.0,15.0,24,0.00,CLR,,0.00,WeatherDisplay:10.37,2013-01-07 16:30:00,
2013-01-07 08:40:00,48.6,11.4,30.02,NNW,342,7.0,17.0,22,0.00,CLR,,0.00,WeatherDisplay:10.37,2013-01-07 16:40:00,
2013-01-07 08:50:00,49.2,11.9,30.02,NNW,339,14.0,21.0,22,0.00,CLR,,0.00,WeatherDisplay:10.37,2013-01-07 16:50:00,
2013-01-07 09:00:00,50.3,10.7,30.02,NNW,341,14.0,22.0,20,0.00,CLR,,0.00,WeatherDisplay:10.37,2013-01-07 17:00:00,
2013-01-07 09:10:00,51.0,11.3,30.02,NNW,342,8.0,22.0,20,0.00,CLR,,0.00,WeatherDisplay:10.37,2013-01-07 17:10:00,
2013-01-07 09:20:00,51.3,11.5,30.03,NNW,342,13.0,21.0,20,0.00,CLR,,0.00,WeatherDisplay:10.37,2013-01-07 17:20:00,
2013-01-07 09:30:00,51.8,10.8,30.03,NNW,337,13.0,22.0,19,0.00,CLR,,0.00,WeatherDisplay:10.37,2013-01-07 17:30:00,
2013-01-07 09:40:00,52.4,11.3,30.04,NNW,339,10.0,22.0,19,0.00,CLR,,0.00,WeatherDisplay:10.37,2013-01-07 17:40:00,
2013-01-07 09:50:00,52.9,10.5,30.04,NNW,343,16.0,23.0,18,0.00,CLR,,0.00,WeatherDisplay:10.37,2013-01-07 17:50:00,
2013-01-07 10:00:00,53.3,10.8,30.04,North,354,15.0,22.0,18,0.00,CLR,,0.00,WeatherDisplay:10.37,2013-01-07 18:00:00,
2013-01-07 10:05:00,53.8,9.9,30.04,NNW,347,13.0,21.0,17,0.00,CLR,,0.00,WeatherDisplay:10.37,2013-01-07 18:05:00,
2013-01-07 10:10:00,53.9,10.0,30.05,NNW,342,14.0,21.0,17,0.00,CLR,,0.00,WeatherDisplay:10.37,2013-01-07 18:10:00,
2013-01-07 10:20:00,54.5,10.5,30.04,NNW,344,12.0,22.0,17,0.00,CLR,,0.00,WeatherDisplay:10.37,2013-01-07 18:20:00,
2013-01-07 10:30:00,55.1,11.0,30.04,NNW,338,8.0,18.0,17,0.00,CLR,,0.00,WeatherDisplay:10.37,2013-01-07 18:30:00,
2013-01-07 10:40:00,55.3,11.2,30.04,NNW,347,12.0,20.0,17,0.00,CLR,,0.00,WeatherDisplay:10.37,2013-01-07 18:40:00,
2013-01-07 10:50:00,56.5,10.7,30.02,North,356,8.0,15.0,16,0.00,CLR,,0.00,WeatherDisplay:10.37,2013-01-07 18:50:00,
2013-01-07 11:00:00,56.9,9.7,30.02,NNW,342,10.0,21.0,15,0.00,CLR,,0.00,WeatherDisplay:10.37,2013-01-07 19:00:00,
2013-01-07 11:10:00,56.7,10.9,30.00,NNW,348,12.0,22.0,16,0.00,CLR,,0.00,WeatherDisplay:10.37,2013-01-07 19:10:00,
2013-01-07 11:20:00,57.2,9.9,29.99,NNW,340,13.0,22.0,15,0.00,CLR,,0.00,WeatherDisplay:10.37,2013-01-07 19:20:00,
2013-01-07 11:30:00,57.8,10.4,29.98,NNW,346,14.0,23.0,15,0.00,CLR,,0.00,WeatherDisplay:10.37,2013-01-07 19:30:00,
2013-01-07 11:40:00,57.8,10.3,29.97,NNW,339,15.0,22.0,15,0.00,CLR,,0.00,WeatherDisplay:10.37,2013-01-07 19:40:00,
2013-01-07 11:50:00,58.1,10.6,29.97,NNW,337,14.0,25.0,15,0.00,CLR,,0.00,WeatherDisplay:10.37,2013-01-07 19:50:00,
2013-01-07 12:00:00,58.6,11.0,29.97,NNW,335,16.0,25.0,15,0.00,CLR,,0.00,WeatherDisplay:10.37,2013-01-07 20:00:00,
2013-01-07 12:10:00,59.3,10.0,29.97,NNW,342,13.0,20.0,14,0.00,CLR,,0.00,WeatherDisplay:10.37,2013-01-07 20:10:00,
2013-01-07 12:20:00,59.1,9.9,29.95,NNW,342,10.0,20.0,14,0.00,CLR,,0.00,WeatherDisplay:10.37,2013-01-07 20:20:00,
2013-01-07 12:30:00,59.6,10.3,29.95,NNW,345,14.0,26.0,14,0.00,CLR,,0.00,WeatherDisplay:10.37,2013-01-07 20:30:00,
2013-01-07 12:35:00,60.0,10.6,29.95,NNW,340,13.0,20.0,14,0.00,CLR,,0.00,WeatherDisplay:10.37,2013-01-07 20:35:00,
2013-01-07 12:40:00,60.2,9.1,29.95,NNW,330,12.0,17.0,13,0.00,CLR,,0.00,WeatherDisplay:10.37,2013-01-07 20:40:00,
2013-01-07 12:50:00,58.6,11.0,29.95,NW,325,14.0,22.0,15,0.00,CLR,,0.00,WeatherDisplay:10.37,2013-01-07 20:50:00,
2013-01-07 13:00:00,57.9,10.5,29.94,NNW,327,13.0,20.0,15,0.00,CLR,,0.00,WeatherDisplay:10.37,2013-01-07 21:00:00,
2013-01-07 13:05:00,58.6,11.0,29.94,NNW,329,15.0,20.0,15,0.00,CLR,,0.00,WeatherDisplay:10.37,2013-01-07 21:05:00,
2013-01-07 13:10:00,59.0,11.3,29.94,NNW,327,10.0,18.0,15,0.00,CLR,,0.00,WeatherDisplay:10.37,2013-01-07 21:10:00,
2013-01-07 13:20:00,59.6,10.3,29.92,NNW,336,13.0,22.0,14,0.00,CLR,,0.00,WeatherDisplay:10.37,2013-01-07 21:20:00,
2013-01-07 13:30:00,60.4,9.3,29.91,NNW,344,13.0,25.0,13,0.00,CLR,,0.00,WeatherDisplay:10.37,2013-01-07 21:30:00,
2013-01-07 13:40:00,61.0,9.7,29.91,North,359,13.0,21.0,13,0.00,CLR,,0.00,WeatherDisplay:10.37,2013-01-07 21:40:00,
2013-01-07 13:50:00,61.6,8.4,29.90,North,355,12.0,20.0,12,0.00,CLR,,0.00,WeatherDisplay:10.37,2013-01-07 21:50:00,
2013-01-07 14:00:00,62.1,8.8,29.91,NNW,347,9.0,20.0,12,0.00,CLR,,0.00,WeatherDisplay:10.37,2013-01-07 22:00:00,
2013-01-07 14:05:00,62.1,8.8,29.91,NNW,348,6.0,20.0,12,0.00,CLR,,0.00,WeatherDisplay:10.37,2013-01-07 22:05:00,
2013-01-07 14:10:00,62.3,9.0,29.91,North,360,8.0,16.0,12,0.00,CLR,,0.00,WeatherDisplay:10.37,2013-01-07 22:10:00,
2013-01-07 14:20:00,62.6,9.2,29.90,North,351,9.0,16.0,12,0.00,CLR,,0.00,WeatherDisplay:10.37,2013-01-07 22:20:00,
2013-01-07 14:30:00,62.6,9.2,29.91,North,350,5.0,14.0,12,0.00,CLR,,0.00,WeatherDisplay:10.37,2013-01-07 22:30:00,
2013-01-07 14:40:00,62.4,10.8,29.91,NE,40,2.0,7.0,13,0.00,CLR,,0.00,WeatherDisplay:10.37,2013-01-07 22:40:00,
2013-01-07 14:50:00,62.4,10.8,29.91,ENE,72,2.0,6.0,13,0.00,CLR,,0.00,WeatherDisplay:10.37,2013-01-07 22:50:00,
2013-01-07 15:00:00,62.3,10.8,29.92,ENE,67,5.0,6.0,13,0.00,CLR,,0.00,WeatherDisplay:10.37,2013-01-07 23:00:00,
2013-01-07 15:05:00,62.2,10.6,29.92,ENE,67,2.0,6.0,13,0.00,CLR,,0.00,WeatherDisplay:10.37,2013-01-07 23:05:00,
2013-01-07 15:10:00,62.1,10.6,29.93,ENE,67,2.0,6.0,13,0.00,CLR,,0.00,WeatherDisplay:10.37,2013-01-07 23:10:00,
2013-01-07 15:20:00,61.6,10.2,29.93,ENE,67,2.0,5.0,13,0.00,CLR,,0.00,WeatherDisplay:10.37,2013-01-07 23:20:00,
2013-01-07 15:30:00,61.2,11.5,29.94,ENE,67,2.0,5.0,14,0.00,CLR,,0.00,WeatherDisplay:10.37,2013-01-07 23:30:00,
2013-01-07 15:40:00,60.2,10.7,29.95,ENE,67,2.0,6.0,14,0.00,CLR,,0.00,WeatherDisplay:10.37,2013-01-07 23:40:00,
2013-01-07 15:50:00,59.6,11.8,29.95,ENE,67,2.0,4.0,15,0.00,CLR,,0.00,WeatherDisplay:10.37,2013-01-07 23:50:00,
2013-01-07 16:00:00,59.3,11.6,29.95,ENE,67,3.0,5.0,15,0.00,CLR,,0.00,WeatherDisplay:10.37,2013-01-08 00:00:00,
2013-01-07 16:05:00,59.0,11.3,29.96,ENE,67,3.0,6.0,15,0.00,CLR,,0.00,WeatherDisplay:10.37,2013-01-08 00:05:00,
2013-01-07 16:10:00,58.7,11.1,29.96,ENE,67,2.0,4.0,15,0.00,CLR,,0.00,WeatherDisplay:10.37,2013-01-08 00:10:00,
2013-01-07 16:20:00,58.1,10.6,29.97,ENE,67,2.0,4.0,15,0.00,CLR,,0.00,WeatherDisplay:10.37,2013-01-08 00:20:00,
2013-01-07 16:30:00,57.6,10.2,29.97,ENE,67,0.0,2.0,15,0.00,CLR,,0.00,WeatherDisplay:10.37,2013-01-08 00:30:00,
2013-01-07 16:40:00,56.4,10.7,29.97,ENE,67,0.0,0.0,16,0.00,CLR,,0.00,WeatherDisplay:10.37,2013-01-08 00:40:00,
2013-01-07 16:50:00,55.4,9.9,29.97,ENE,67,0.0,0.0,16,0.00,CLR,,0.00,WeatherDisplay:10.37,2013-01-08 00:50:00,
2013-01-07 17:00:00,54.6,10.6,29.97,ENE,67,0.0,0.0,17,0.00,CLR,,0.00,WeatherDisplay:10.37,2013-01-08 01:00:00,
2013-01-07 17:05:00,53.8,9.9,29.98,ENE,67,0.0,0.0,17,0.00,CLR,,0.00,WeatherDisplay:10.37,2013-01-08 01:05:00,
2013-01-07 17:10:00,53.3,9.5,29.98,ENE,67,0.0,0.0,17,0.00,CLR,,0.00,WeatherDisplay:10.37,2013-01-08 01:10:00,
2013-01-07 17:20:00,52.6,9.0,29.98,ENE,67,0.0,0.0,17,0.00,CLR,,0.00,WeatherDisplay:10.37,2013-01-08 01:20:00,
2013-01-07 17:30:00,50.9,8.8,29.99,ENE,67,1.0,3.0,18,0.00,CLR,,0.00,WeatherDisplay:10.37,2013-01-08 01:30:00,
2013-01-07 17:40:00,50.2,9.5,29.99,ENE,67,0.0,0.0,19,0.00,CLR,,0.00,WeatherDisplay:10.37,2013-01-08 01:40:00,
2013-01-07 17:50:00,49.6,9.0,29.99,ENE,67,1.0,3.0,19,0.00,CLR,,0.00,WeatherDisplay:10.37,2013-01-08 01:50:00,
2013-01-07 18:00:00,49.1,9.7,29.99,ENE,67,0.0,1.0,20,0.00,CLR,,0.00,WeatherDisplay:10.37,2013-01-08 02:00:00,
2013-01-07 18:05:00,48.9,9.5,29.99,ENE,67,0.0,3.0,20,0.00,CLR,,0.00,WeatherDisplay:10.37,2013-01-08 02:05:00,
2013-01-07 18:10:00,47.2,7.0,30.00,ENE,67,2.0,5.0,19,0.00,CLR,,0.00,WeatherDisplay:10.37,2013-01-08 02:10:00,
2013-01-07 18:20:00,45.6,7.8,30.00,ENE,67,0.0,0.0,21,0.00,CLR,,0.00,WeatherDisplay:10.37,2013-01-08 02:20:00,
2013-01-07 18:35:00,45.4,7.7,30.01,ENE,67,1.0,3.0,21,0.00,CLR,,0.00,WeatherDisplay:10.37,2013-01-08 02:35:00,
2013-01-07 18:40:00,45.4,8.7,30.01,ENE,67,0.0,4.0,22,0.00,CLR,,0.00,WeatherDisplay:10.37,2013-01-08 02:40:00,
2013-01-07 18:50:00,44.2,7.7,30.02,ENE,67,1.0,5.0,22,0.00,CLR,,0.00,WeatherDisplay:10.37,2013-01-08 02:50:00,
2013-01-07 19:00:00,43.3,7.9,30.02,ENE,67,0.0,0.0,23,0.00,CLR,,0.00,WeatherDisplay:10.37,2013-01-08 03:00:00,
2013-01-07 19:05:00,42.9,7.6,30.02,ENE,67,0.0,0.0,23,0.00,CLR,,0.00,WeatherDisplay:10.37,2013-01-08 03:05:00,
2013-01-07 19:10:00,42.3,8.0,30.02,ENE,67,0.0,1.0,24,0.00,CLR,,0.00,WeatherDisplay:10.37,2013-01-08 03:10:00,
2013-01-07 19:20:00,41.8,7.6,30.03,ENE,67,1.0,4.0,24,0.00,CLR,,0.00,WeatherDisplay:10.37,2013-01-08 03:20:00,
2013-01-07 19:30:00,40.7,5.7,30.02,ENE,67,0.0,0.0,23,0.00,CLR,,0.00,WeatherDisplay:10.37,2013-01-08 03:30:00,
2013-01-07 19:40:00,39.1,6.2,30.03,ENE,67,0.0,4.0,25,0.00,CLR,,0.00,WeatherDisplay:10.37,2013-01-08 03:40:00,
2013-01-07 19:50:00,39.5,7.4,30.03,ENE,67,0.0,0.0,26,0.00,CLR,,0.00,WeatherDisplay:10.37,2013-01-08 03:50:00,
2013-01-07 20:00:00,39.8,6.8,30.04,ENE,67,0.0,3.0,25,0.00,CLR,,0.00,WeatherDisplay:10.37,2013-01-08 04:00:00,
2013-01-07 20:05:00,39.5,6.5,30.03,ENE,67,1.0,2.0,25,0.00,CLR,,0.00,WeatherDisplay:10.37,2013-01-08 04:05:00,
2013-01-07 20:10:00,39.0,6.1,30.03,ENE,67,0.0,3.0,25,0.00,CLR,,0.00,WeatherDisplay:10.37,2013-01-08 04:10:00,
2013-01-07 20:20:00,38.8,6.8,30.03,ENE,67,1.0,3.0,26,0.00,CLR,,0.00,WeatherDisplay:10.37,2013-01-08 04:20:00,
2013-01-07 20:30:00,39.3,7.2,30.02,ENE,71,0.0,2.0,26,0.00,CLR,,0.00,WeatherDisplay:10.37,2013-01-08 04:30:00,
2013-01-07 20:40:00,39.8,7.6,30.02,ENE,71,0.0,0.0,26,0.00,CLR,,0.00,WeatherDisplay:10.37,2013-01-08 04:40:00,
2013-01-07 20:50:00,38.5,7.4,30.01,ENE,71,2.0,4.0,27,0.00,CLR,,0.00,WeatherDisplay:10.37,2013-01-08 04:50:00,
2013-01-07 21:00:00,38.6,6.6,30.01,ENE,71,0.0,0.0,26,0.00,CLR,,0.00,WeatherDisplay:10.37,2013-01-08 05:00:00,
2013-01-07 21:05:00,38.6,7.4,30.02,ENE,71,0.0,0.0,27,0.00,CLR,,0.00,WeatherDisplay:10.37,2013-01-08 05:05:00,
2013-01-07 21:10:00,38.3,7.2,30.02,ENE,71,0.0,3.0,27,0.00,CLR,,0.00,WeatherDisplay:10.37,2013-01-08 05:10:00,
2013-01-07 21:20:00,37.2,5.4,30.02,ENE,71,2.0,4.0,26,0.00,CLR,,0.00,WeatherDisplay:10.37,2013-01-08 05:20:00,
2013-01-07 21:25:00,37.0,6.1,30.01,ENE,71,0.0,3.0,27,0.00,CLR,,0.00,WeatherDisplay:10.37,2013-01-08 05:25:00,
2013-01-07 21:30:00,37.4,6.4,30.01,ENE,71,2.0,5.0,27,0.00,CLR,,0.00,WeatherDisplay:10.37,2013-01-08 05:30:00,
2013-01-07 21:40:00,39.5,8.2,30.01,ENE,72,1.0,5.0,27,0.00,CLR,,0.00,WeatherDisplay:10.37,2013-01-08 05:40:00,
2013-01-07 21:50:00,40.6,9.2,30.00,ENE,72,3.0,4.0,27,0.00,CLR,,0.00,WeatherDisplay:10.37,2013-01-08 05:50:00,
2013-01-07 22:00:00,40.5,7.4,30.01,ENE,72,0.0,3.0,25,0.00,CLR,,0.00,WeatherDisplay:10.37,2013-01-08 06:00:00,
2013-01-07 22:05:00,39.7,6.7,30.01,ENE,72,0.0,0.0,25,0.00,CLR,,0.00,WeatherDisplay:10.37,2013-01-08 06:05:00,
2013-01-07 22:10:00,39.2,8.0,30.00,ENE,72,0.0,0.0,27,0.00,CLR,,0.00,WeatherDisplay:10.37,2013-01-08 06:10:00,
2013-01-07 22:20:00,40.5,9.1,30.00,ENE,72,1.0,3.0,27,0.00,CLR,,0.00,WeatherDisplay:10.37,2013-01-08 06:20:00,
2013-01-07 22:30:00,38.6,8.2,30.01,ENE,75,1.0,4.0,28,0.00,CLR,,0.00,WeatherDisplay:10.37,2013-01-08 06:30:00,
2013-01-07 22:40:00,38.7,8.3,30.01,ENE,76,3.0,7.0,28,0.00,CLR,,0.00,WeatherDisplay:10.37,2013-01-08 06:40:00,
2013-01-07 22:50:00,39.1,8.7,30.01,ENE,77,2.0,3.0,28,0.00,CLR,,0.00,WeatherDisplay:10.37,2013-01-08 06:50:00,
2013-01-07 23:00:00,39.3,8.0,30.01,ENE,77,2.0,4.0,27,0.00,CLR,,0.00,WeatherDisplay:10.37,2013-01-08 07:00:00,
2013-01-07 23:10:00,39.5,10.6,30.01,ENE,78,1.0,6.0,30,0.00,CLR,,0.00,WeatherDisplay:10.37,2013-01-08 07:10:00,
2013-01-07 23:20:00,40.8,10.2,30.00,ENE,78,2.0,3.0,28,0.00,CLR,,0.00,WeatherDisplay:10.37,2013-01-08 07:20:00,
2013-01-07 23:30:00,40.9,10.2,30.00,ENE,78,0.0,0.0,28,0.00,CLR,,0.00,WeatherDisplay:10.37,2013-01-08 07:30:00,
2013-01-07 23:40:00,39.2,9.6,30.00,ENE,78,2.0,5.0,29,0.00,CLR,,0.00,WeatherDisplay:10.37,2013-01-08 07:40:00,
2013-01-07 23:50:00,40.1,10.3,30.00,ENE,78,1.0,2.0,29,0.00,CLR,,0.00,WeatherDisplay:10.37,2013-01-08 07:50:00,